createdAt,value
2017-08-18T00:00:20.805Z,1007.81
2017-08-18T00:01:14.805Z,1007.79
2017-08-18T00:02:15.921Z,1007.79
2017-08-18T00:03:15.901Z,1007.82
2017-08-18T00:04:15.957Z,1007.84
2017-08-18T00:05:10.947Z,1007.88
2017-08-18T00:06:05.020Z,1007.92
2017-08-18T00:07:06.042Z,1007.88
2017-08-18T00:08:06.208Z,1007.89
2017-08-18T00:09:01.083Z,1007.81
2017-08-18T00:10:01.241Z,1007.83
2017-08-18T00:10:55.204Z,1007.78
2017-08-18T00:11:55.311Z,1007.81
2017-08-18T00:12:50.278Z,1007.80
2017-08-18T00:13:38.331Z,1007.79
2017-08-18T00:14:32.430Z,1007.80
2017-08-18T00:15:27.448Z,1007.81
2017-08-18T00:16:27.475Z,1007.83
2017-08-18T00:17:22.476Z,1007.84
2017-08-18T00:18:22.557Z,1007.81
2017-08-18T00:19:22.568Z,1007.80
2017-08-18T00:20:22.669Z,1007.83
2017-08-18T00:21:16.668Z,1007.76
2017-08-18T00:22:16.725Z,1007.80
2017-08-18T00:23:11.672Z,1007.77
2017-08-18T00:24:06.706Z,1007.76
2017-08-18T00:25:07.871Z,1007.71
2017-08-18T00:26:07.763Z,1007.74
2017-08-18T00:27:07.928Z,1007.73
2017-08-18T00:28:02.945Z,1007.78
2017-08-18T00:28:56.926Z,1007.81
2017-08-18T00:29:58.000Z,1007.77
2017-08-18T00:30:52.104Z,1007.73
2017-08-18T00:31:47.174Z,1007.73
2017-08-18T00:32:47.098Z,1007.76
2017-08-18T00:33:42.220Z,1007.73
2017-08-18T00:34:37.255Z,1007.75
2017-08-18T00:35:38.283Z,1007.74
2017-08-18T00:36:38.259Z,1007.75
2017-08-18T00:37:27.263Z,1007.77
2017-08-18T00:38:15.373Z,1007.77
2017-08-18T00:39:04.428Z,1007.72
2017-08-18T00:39:53.416Z,1007.75
2017-08-18T00:40:42.575Z,1007.77
2017-08-18T00:41:30.476Z,1007.72
2017-08-18T00:42:30.572Z,1007.73
2017-08-18T00:43:36.560Z,1007.76
2017-08-18T00:44:31.578Z,1007.71
2017-08-18T00:45:25.604Z,1007.69
2017-08-18T00:46:25.696Z,1007.66
2017-08-18T00:47:25.690Z,1007.62
2017-08-18T00:48:20.735Z,1007.61
2017-08-18T00:49:14.748Z,1007.57
2017-08-18T00:50:14.858Z,1007.58
2017-08-18T00:51:09.866Z,1007.56
2017-08-18T00:52:15.962Z,1007.51
2017-08-18T00:53:09.782Z,1007.51
2017-08-18T00:54:04.574Z,1007.52
2017-08-18T00:54:53.064Z,1007.49
2017-08-18T00:55:40.886Z,1007.52
2017-08-18T00:56:36.100Z,1007.47
2017-08-18T00:57:30.160Z,1007.49
2017-08-18T00:58:19.135Z,1007.48
2017-08-18T00:59:07.319Z,1007.44
2017-08-18T00:59:55.222Z,1007.41
2017-08-18T01:00:50.226Z,1007.45
2017-08-18T01:01:56.338Z,1007.45
2017-08-18T01:02:56.340Z,1007.46
2017-08-18T01:03:50.277Z,1007.45
2017-08-18T01:04:50.429Z,1007.51
2017-08-18T01:05:45.419Z,1007.45
2017-08-18T01:06:40.499Z,1007.43
2017-08-18T01:07:40.520Z,1007.42
2017-08-18T01:08:35.498Z,1007.36
2017-08-18T01:09:29.662Z,1007.42
2017-08-18T01:10:23.637Z,1007.45
2017-08-18T01:11:12.628Z,1007.40
2017-08-18T01:12:00.715Z,1007.45
2017-08-18T01:12:48.776Z,1007.42
2017-08-18T01:13:37.863Z,1007.45
2017-08-18T01:14:25.862Z,1007.43
2017-08-18T01:15:13.955Z,1007.45
2017-08-18T01:16:03.150Z,1007.45
2017-08-18T01:16:52.045Z,1007.41
2017-08-18T01:17:45.991Z,1007.43
2017-08-18T01:18:40.019Z,1007.40
2017-08-18T01:19:29.217Z,1007.40
2017-08-18T01:20:18.186Z,1007.39
2017-08-18T01:21:07.200Z,1007.40
2017-08-18T01:21:55.185Z,1007.44
2017-08-18T01:22:55.305Z,1007.43
2017-08-18T01:23:49.345Z,1007.37
2017-08-18T01:24:43.315Z,1007.41
2017-08-18T01:25:32.353Z,1007.40
2017-08-18T01:26:20.502Z,1007.42
2017-08-18T01:27:14.532Z,1007.41
2017-08-18T01:28:02.541Z,1007.42
2017-08-18T01:28:51.657Z,1007.43
2017-08-18T01:29:39.645Z,1007.42
2017-08-18T01:30:27.692Z,1007.42
2017-08-18T01:31:16.753Z,1007.42
2017-08-18T01:32:11.787Z,1007.38
2017-08-18T01:33:00.834Z,1007.37
2017-08-18T01:33:55.854Z,1007.34
2017-08-18T01:34:43.955Z,1007.32
2017-08-18T01:35:32.953Z,1007.27
2017-08-18T01:36:20.956Z,1007.26
2017-08-18T01:37:09.015Z,1007.24
2017-08-18T01:37:57.110Z,1007.24
2017-08-18T01:38:44.970Z,1007.26
2017-08-18T01:39:33.076Z,1007.29
2017-08-18T01:40:21.301Z,1007.29
2017-08-18T01:41:09.208Z,1007.31
2017-08-18T01:41:57.317Z,1007.28
2017-08-18T01:42:46.259Z,1007.24
2017-08-18T01:43:34.413Z,1007.19
2017-08-18T01:44:22.422Z,1007.18
2017-08-18T01:45:11.520Z,1007.14
2017-08-18T01:45:59.409Z,1007.17
2017-08-18T01:46:47.483Z,1007.19
2017-08-18T01:47:36.547Z,1007.17
2017-08-18T01:48:24.277Z,1007.17
2017-08-18T01:49:12.476Z,1007.20
2017-08-18T01:50:01.356Z,1007.18
2017-08-18T01:50:49.459Z,1007.24
2017-08-18T01:51:37.446Z,1007.20
2017-08-18T01:52:27.061Z,1007.20
2017-08-18T01:53:14.968Z,1007.17
2017-08-18T01:54:03.567Z,1007.13
2017-08-18T01:54:51.689Z,1007.14
2017-08-18T01:55:45.701Z,1007.15
2017-08-18T01:56:40.721Z,1007.18
2017-08-18T01:57:28.782Z,1007.18
2017-08-18T01:58:16.843Z,1007.17
2017-08-18T01:59:05.891Z,1007.11
2017-08-18T01:59:53.923Z,1007.09
2017-08-18T02:00:41.892Z,1007.11
2017-08-18T02:01:31.076Z,1007.08
2017-08-18T02:02:19.224Z,1007.04
2017-08-18T02:03:07.128Z,1007.05
2017-08-18T02:03:56.117Z,1007.04
2017-08-18T02:04:44.477Z,1007.00
2017-08-18T02:05:32.286Z,1006.99
2017-08-18T02:06:20.261Z,1007.00
2017-08-18T02:07:09.568Z,1007.01
2017-08-18T02:07:57.360Z,1007.04
2017-08-18T02:08:46.750Z,1007.09
2017-08-18T02:09:34.397Z,1007.15
2017-08-18T02:10:22.764Z,1007.11
2017-08-18T02:11:11.581Z,1007.11
2017-08-18T02:11:59.953Z,1007.17
2017-08-18T02:12:48.090Z,1007.17
2017-08-18T02:13:36.685Z,1007.18
2017-08-18T02:14:24.813Z,1007.17
2017-08-18T02:15:12.657Z,1007.15
2017-08-18T02:16:01.879Z,1007.24
2017-08-18T02:16:49.870Z,1007.22
2017-08-18T02:17:37.793Z,1007.26
2017-08-18T02:18:26.895Z,1007.25
2017-08-18T02:19:15.046Z,1007.26
2017-08-18T02:20:02.998Z,1007.28
2017-08-18T02:20:52.298Z,1007.28
2017-08-18T02:21:40.360Z,1007.28
2017-08-18T02:22:34.775Z,1007.29
2017-08-18T02:23:23.105Z,1007.28
2017-08-18T02:24:18.531Z,1007.26
2017-08-18T02:25:12.276Z,1007.24
2017-08-18T02:26:06.342Z,1007.22
2017-08-18T02:26:55.571Z,1007.14
2017-08-18T02:27:55.426Z,1007.16
2017-08-18T02:28:50.778Z,1007.17
2017-08-18T02:29:50.492Z,1007.18
2017-08-18T02:30:44.509Z,1007.13
2017-08-18T02:31:45.560Z,1007.13
2017-08-18T02:32:45.544Z,1007.14
2017-08-18T02:33:40.684Z,1007.15
2017-08-18T02:34:40.638Z,1007.16
2017-08-18T02:35:34.654Z,1007.18
2017-08-18T02:36:34.653Z,1007.18
2017-08-18T02:37:30.245Z,1007.18
2017-08-18T02:38:24.802Z,1007.17
2017-08-18T02:39:24.831Z,1007.16
2017-08-18T02:40:19.881Z,1007.18
2017-08-18T02:41:14.913Z,1007.21
2017-08-18T02:42:16.415Z,1007.26
2017-08-18T02:43:15.981Z,1007.32
2017-08-18T02:44:15.922Z,1007.38
2017-08-18T02:45:11.045Z,1007.33
2017-08-18T02:46:05.116Z,1007.33
2017-08-18T02:47:05.394Z,1007.28
2017-08-18T02:48:00.204Z,1007.24
2017-08-18T02:49:00.141Z,1007.23
2017-08-18T02:49:54.450Z,1007.25
2017-08-18T02:50:55.289Z,1007.24
2017-08-18T02:51:56.557Z,1007.25
2017-08-18T02:52:51.746Z,1007.24
2017-08-18T02:53:45.383Z,1007.20
2017-08-18T02:54:46.533Z,1007.23
2017-08-18T02:55:47.451Z,1007.21
2017-08-18T02:56:42.522Z,1007.15
2017-08-18T02:57:36.944Z,1007.18
2017-08-18T02:58:36.962Z,1007.17
2017-08-18T02:59:36.612Z,1007.12
2017-08-18T03:00:32.017Z,1007.14
2017-08-18T03:01:25.672Z,1007.11
2017-08-18T03:02:25.776Z,1007.09
2017-08-18T03:03:21.022Z,1007.06
2017-08-18T03:04:20.758Z,1007.05
2017-08-18T03:05:20.718Z,1007.06
2017-08-18T03:06:20.966Z,1007.05
2017-08-18T03:07:15.298Z,1007.07
2017-08-18T03:08:15.065Z,1007.05
2017-08-18T03:09:09.927Z,1007.07
2017-08-18T03:10:05.019Z,1007.07
2017-08-18T03:11:06.261Z,1007.06
2017-08-18T03:12:07.119Z,1007.11
2017-08-18T03:13:02.133Z,1007.11
2017-08-18T03:14:02.590Z,1007.16
2017-08-18T03:15:02.251Z,1007.20
2017-08-18T03:16:02.323Z,1007.16
2017-08-18T03:16:57.294Z,1007.20
2017-08-18T03:17:57.386Z,1007.18
2017-08-18T03:18:57.746Z,1007.13
2017-08-18T03:19:57.381Z,1007.18
2017-08-18T03:20:51.453Z,1007.15
2017-08-18T03:21:51.853Z,1007.09
2017-08-18T03:22:46.469Z,1007.10
2017-08-18T03:23:41.829Z,1007.11
2017-08-18T03:24:41.447Z,1007.09
2017-08-18T03:25:36.653Z,1007.10
2017-08-18T03:26:31.584Z,1007.09
2017-08-18T03:27:31.981Z,1007.03
2017-08-18T03:28:26.786Z,1007.07
2017-08-18T03:29:21.699Z,1007.03
2017-08-18T03:30:22.746Z,1007.03
2017-08-18T03:31:22.840Z,1007.02
2017-08-18T03:32:22.899Z,1007.01
2017-08-18T03:33:17.900Z,1007.00
2017-08-18T03:34:12.105Z,1006.95
2017-08-18T03:35:11.878Z,1006.96
2017-08-18T03:36:06.996Z,1006.97
2017-08-18T03:37:07.436Z,1006.96
2017-08-18T03:38:01.105Z,1006.99
2017-08-18T03:39:02.507Z,1006.96
2017-08-18T03:40:03.098Z,1006.94
2017-08-18T03:40:58.127Z,1006.98
2017-08-18T03:41:52.611Z,1006.95
2017-08-18T03:42:52.588Z,1006.91
2017-08-18T03:43:46.231Z,1006.92
2017-08-18T03:44:35.283Z,1006.92
2017-08-18T03:45:29.342Z,1006.91
2017-08-18T03:46:24.364Z,1006.87
2017-08-18T03:47:24.609Z,1006.89
2017-08-18T03:48:14.077Z,1006.90
2017-08-18T03:49:07.482Z,1006.92
2017-08-18T03:49:55.528Z,1006.94
2017-08-18T03:50:43.591Z,1006.92
2017-08-18T03:51:37.649Z,1006.92
2017-08-18T03:52:26.693Z,1006.95
2017-08-18T03:53:14.724Z,1006.97
2017-08-18T03:54:14.773Z,1006.96
2017-08-18T03:55:08.800Z,1006.99
2017-08-18T03:56:02.891Z,1006.99
2017-08-18T03:56:57.392Z,1006.98
2017-08-18T03:57:51.953Z,1006.96
2017-08-18T03:58:45.963Z,1006.95
2017-08-18T03:59:46.033Z,1006.97
2017-08-18T04:00:40.995Z,1006.99
2017-08-18T04:01:41.112Z,1006.96
2017-08-18T04:02:35.205Z,1007.00
2017-08-18T04:03:23.184Z,1007.04
2017-08-18T04:04:12.698Z,1007.05
2017-08-18T04:05:00.279Z,1007.09
2017-08-18T04:05:48.303Z,1007.13
2017-08-18T04:06:37.407Z,1007.18
2017-08-18T04:07:25.293Z,1007.18
2017-08-18T04:08:13.381Z,1007.19
2017-08-18T04:09:14.790Z,1007.15
2017-08-18T04:10:03.413Z,1007.12
2017-08-18T04:10:52.013Z,1007.07
2017-08-18T04:11:52.043Z,1007.07
2017-08-18T04:12:46.730Z,1007.09
2017-08-18T04:13:41.738Z,1007.11
2017-08-18T04:14:41.989Z,1007.13
2017-08-18T04:15:30.760Z,1007.17
2017-08-18T04:16:24.894Z,1007.16
2017-08-18T04:17:12.838Z,1007.10
2017-08-18T04:18:01.810Z,1007.10
2017-08-18T04:18:49.882Z,1007.11
2017-08-18T04:19:37.983Z,1007.08
2017-08-18T04:20:33.841Z,1007.07
2017-08-18T04:21:21.109Z,1007.10
2017-08-18T04:22:09.275Z,1007.13
2017-08-18T04:22:57.095Z,1007.14
2017-08-18T04:23:45.296Z,1007.17
2017-08-18T04:24:40.202Z,1007.10
2017-08-18T04:25:34.573Z,1007.09
2017-08-18T04:26:29.321Z,1007.08
2017-08-18T04:27:23.667Z,1007.06
2017-08-18T04:28:17.669Z,1007.14
2017-08-18T04:29:06.436Z,1007.12
2017-08-18T04:29:54.652Z,1007.14
2017-08-18T04:30:42.568Z,1007.07
2017-08-18T04:31:31.859Z,1007.17
2017-08-18T04:32:25.639Z,1007.13
2017-08-18T04:33:13.918Z,1007.09
2017-08-18T04:34:03.025Z,1007.10
2017-08-18T04:34:51.046Z,1007.15
2017-08-18T04:35:39.063Z,1007.17
2017-08-18T04:36:33.079Z,1007.15
2017-08-18T04:37:26.939Z,1007.11
2017-08-18T04:38:27.088Z,1007.13
2017-08-18T04:39:22.013Z,1007.10
2017-08-18T04:40:17.361Z,1007.06
2017-08-18T04:41:17.312Z,1007.05
2017-08-18T04:42:11.298Z,1007.01
2017-08-18T04:43:00.468Z,1006.99
2017-08-18T04:43:54.424Z,1006.99
2017-08-18T04:44:48.461Z,1006.97
2017-08-18T04:45:36.507Z,1006.97
2017-08-18T04:46:24.628Z,1006.98
2017-08-18T04:47:18.571Z,1006.98
2017-08-18T04:48:07.684Z,1007.02
2017-08-18T04:49:01.619Z,1006.98
2017-08-18T04:49:50.761Z,1006.96
2017-08-18T04:50:38.584Z,1007.00
2017-08-18T04:51:27.727Z,1006.99
2017-08-18T04:52:22.715Z,1007.04
2017-08-18T04:53:24.015Z,1007.05
2017-08-18T04:54:24.699Z,1007.09
2017-08-18T04:55:18.718Z,1007.11
2017-08-18T04:56:12.810Z,1007.12
2017-08-18T04:57:07.841Z,1007.15
2017-08-18T04:58:01.847Z,1007.14
2017-08-18T04:58:51.157Z,1007.13
2017-08-18T04:59:50.884Z,1007.13
2017-08-18T05:00:50.914Z,1007.17
2017-08-18T05:01:50.893Z,1007.19
2017-08-18T05:02:51.233Z,1007.17
2017-08-18T05:03:51.106Z,1007.16
2017-08-18T05:04:51.110Z,1007.15
2017-08-18T05:05:51.114Z,1007.17
2017-08-18T05:06:51.138Z,1007.12
2017-08-18T05:07:51.472Z,1007.15
2017-08-18T05:08:51.667Z,1007.15
2017-08-18T05:09:40.433Z,1007.14
2017-08-18T05:10:40.621Z,1007.17
2017-08-18T05:11:34.540Z,1007.23
2017-08-18T05:12:34.745Z,1007.24
2017-08-18T05:13:28.522Z,1007.33
2017-08-18T05:14:22.869Z,1007.32
2017-08-18T05:15:22.940Z,1007.30
2017-08-18T05:16:22.827Z,1007.29
2017-08-18T05:17:17.830Z,1007.32
2017-08-18T05:18:17.894Z,1007.30
2017-08-18T05:19:17.848Z,1007.32
2017-08-18T05:20:17.786Z,1007.33
2017-08-18T05:21:06.853Z,1007.33
2017-08-18T05:21:56.459Z,1007.30
2017-08-18T05:22:43.828Z,1007.28
2017-08-18T05:23:32.846Z,1007.24
2017-08-18T05:24:27.957Z,1007.28
2017-08-18T05:25:22.117Z,1007.28
2017-08-18T05:26:17.003Z,1007.28
2017-08-18T05:27:18.059Z,1007.27
2017-08-18T05:28:07.036Z,1007.25
2017-08-18T05:28:55.558Z,1007.24
2017-08-18T05:29:44.315Z,1007.20
2017-08-18T05:30:39.202Z,1007.17
2017-08-18T05:31:39.254Z,1007.17
2017-08-18T05:32:34.369Z,1007.12
2017-08-18T05:33:28.412Z,1007.12
2017-08-18T05:34:28.362Z,1007.12
2017-08-18T05:35:16.862Z,1007.10
2017-08-18T05:36:05.860Z,1007.11
2017-08-18T05:37:00.846Z,1007.12
2017-08-18T05:37:54.846Z,1007.11
2017-08-18T05:38:48.927Z,1007.08
2017-08-18T05:39:48.794Z,1007.11
2017-08-18T05:40:44.018Z,1007.12
2017-08-18T05:41:32.114Z,1007.15
2017-08-18T05:42:27.078Z,1007.15
2017-08-18T05:43:28.372Z,1007.19
2017-08-18T05:44:28.053Z,1007.17
2017-08-18T05:45:33.919Z,1007.22
2017-08-18T05:46:28.895Z,1007.27
2017-08-18T05:47:23.101Z,1007.33
2017-08-18T05:48:24.007Z,1007.35
2017-08-18T05:49:19.010Z,1007.33
2017-08-18T05:50:19.280Z,1007.30
2017-08-18T05:51:19.214Z,1007.26
2017-08-18T05:52:13.147Z,1007.24
2017-08-18T05:53:13.167Z,1007.21
2017-08-18T05:54:07.307Z,1007.23
2017-08-18T05:54:56.253Z,1007.22
2017-08-18T05:55:44.685Z,1007.25
2017-08-18T05:56:45.661Z,1007.20
2017-08-18T05:57:33.768Z,1007.19
2017-08-18T05:58:33.546Z,1007.23
2017-08-18T05:59:28.600Z,1007.19
2017-08-18T06:00:28.818Z,1007.16
2017-08-18T06:01:28.967Z,1007.08
2017-08-18T06:02:28.980Z,1007.03
2017-08-18T06:03:28.641Z,1006.97
2017-08-18T06:04:28.637Z,1007.00
2017-08-18T06:05:28.681Z,1007.03
2017-08-18T06:06:28.740Z,1007.02
2017-08-18T06:07:28.837Z,1007.01
2017-08-18T06:08:28.828Z,1006.94
2017-08-18T06:09:29.316Z,1006.92
2017-08-18T06:10:28.985Z,1006.94
2017-08-18T06:11:28.995Z,1006.95
2017-08-18T06:12:29.084Z,1006.95
2017-08-18T06:13:28.948Z,1006.99
2017-08-18T06:14:29.170Z,1006.98
2017-08-18T06:15:29.467Z,1006.97
2017-08-18T06:16:29.143Z,1006.99
2017-08-18T06:17:29.227Z,1006.94
2017-08-18T06:18:29.183Z,1006.94
2017-08-18T06:19:29.193Z,1006.97
2017-08-18T06:20:29.273Z,1006.99
2017-08-18T06:21:29.228Z,1007.03
2017-08-18T06:22:18.626Z,1007.00
2017-08-18T06:23:06.364Z,1007.02
2017-08-18T06:24:06.535Z,1007.02
2017-08-18T06:25:01.627Z,1007.00
2017-08-18T06:25:56.436Z,1006.97
2017-08-18T06:26:50.660Z,1006.98
2017-08-18T06:27:44.812Z,1007.00
2017-08-18T06:28:38.967Z,1007.05
2017-08-18T06:29:33.090Z,1007.08
2017-08-18T06:30:27.105Z,1007.11
2017-08-18T06:31:28.188Z,1007.04
2017-08-18T06:32:27.741Z,1007.01
2017-08-18T06:33:16.028Z,1006.97
2017-08-18T06:34:10.832Z,1006.95
2017-08-18T06:35:10.928Z,1006.96
2017-08-18T06:36:05.957Z,1006.98
2017-08-18T06:37:05.985Z,1007.01
2017-08-18T06:38:01.120Z,1007.04
2017-08-18T06:38:56.046Z,1007.02
2017-08-18T06:39:50.166Z,1007.03
2017-08-18T06:40:50.195Z,1007.01
2017-08-18T06:41:44.288Z,1007.01
2017-08-18T06:42:45.370Z,1006.97
2017-08-18T06:43:46.622Z,1006.98
2017-08-18T06:44:46.306Z,1006.93
2017-08-18T06:45:46.480Z,1006.91
2017-08-18T06:46:34.582Z,1006.91
2017-08-18T06:47:23.524Z,1006.94
2017-08-18T06:48:11.465Z,1006.95
2017-08-18T06:49:12.940Z,1006.96
2017-08-18T06:50:06.632Z,1006.95
2017-08-18T06:51:06.610Z,1006.95
2017-08-18T06:52:01.094Z,1006.93
2017-08-18T06:52:55.702Z,1006.92
2017-08-18T06:53:43.946Z,1006.95
2017-08-18T06:54:32.855Z,1006.91
2017-08-18T06:55:21.851Z,1006.91
2017-08-18T06:56:21.902Z,1006.84
2017-08-18T06:57:22.049Z,1006.86
2017-08-18T06:58:21.973Z,1006.88
2017-08-18T06:59:10.000Z,1006.88
2017-08-18T07:00:09.998Z,1006.91
2017-08-18T07:01:10.043Z,1006.94
2017-08-18T07:02:10.096Z,1006.99
2017-08-18T07:03:10.166Z,1006.98
2017-08-18T07:04:10.426Z,1007.02
2017-08-18T07:05:04.569Z,1007.01
2017-08-18T07:06:05.630Z,1007.02
2017-08-18T07:06:53.801Z,1007.01
2017-08-18T07:07:53.765Z,1006.98
2017-08-18T07:08:47.712Z,1007.00
2017-08-18T07:09:36.828Z,1007.03
2017-08-18T07:10:31.849Z,1006.99
2017-08-18T07:11:19.903Z,1007.01
2017-08-18T07:12:07.970Z,1006.99
2017-08-18T07:12:56.013Z,1006.98
2017-08-18T07:13:56.161Z,1007.02
2017-08-18T07:14:50.101Z,1006.99
2017-08-18T07:15:45.158Z,1007.01
2017-08-18T07:16:45.225Z,1007.03
2017-08-18T07:17:39.326Z,1007.06
2017-08-18T07:18:40.323Z,1007.07
2017-08-18T07:19:29.406Z,1007.05
2017-08-18T07:20:23.469Z,1007.05
2017-08-18T07:21:18.452Z,1007.07
2017-08-18T07:22:13.583Z,1006.99
2017-08-18T07:23:14.504Z,1006.96
2017-08-18T07:24:09.596Z,1006.93
2017-08-18T07:25:04.603Z,1006.91
2017-08-18T07:25:58.711Z,1006.89
2017-08-18T07:26:46.733Z,1006.84
2017-08-18T07:27:46.727Z,1006.78
2017-08-18T07:28:40.757Z,1006.76
2017-08-18T07:29:40.947Z,1006.79
2017-08-18T07:30:34.804Z,1006.86
2017-08-18T07:31:34.902Z,1006.88
2017-08-18T07:32:28.983Z,1006.88
2017-08-18T07:33:28.947Z,1006.90
2017-08-18T07:34:22.955Z,1006.92
2017-08-18T07:35:18.140Z,1006.93
2017-08-18T07:36:18.114Z,1006.96
2017-08-18T07:37:18.169Z,1006.98
2017-08-18T07:38:13.152Z,1007.00
2017-08-18T07:39:08.319Z,1007.06
2017-08-18T07:40:02.352Z,1007.08
2017-08-18T07:40:57.355Z,1007.11
2017-08-18T07:41:52.341Z,1007.16
2017-08-18T07:42:53.432Z,1007.24
2017-08-18T07:43:41.433Z,1007.28
2017-08-18T07:44:41.590Z,1007.29
2017-08-18T07:45:35.523Z,1007.31
2017-08-18T07:46:35.542Z,1007.35
2017-08-18T07:47:30.629Z,1007.34
2017-08-18T07:48:24.700Z,1007.40
2017-08-18T07:49:24.642Z,1007.42
2017-08-18T07:50:13.834Z,1007.43
2017-08-18T07:51:02.795Z,1007.40
2017-08-18T07:51:56.941Z,1007.35
2017-08-18T07:52:46.017Z,1007.29
2017-08-18T07:53:40.941Z,1007.23
2017-08-18T07:54:35.983Z,1007.23
2017-08-18T07:55:24.037Z,1007.20
2017-08-18T07:56:12.119Z,1007.18
2017-08-18T07:57:01.485Z,1007.21
2017-08-18T07:57:56.184Z,1007.23
2017-08-18T07:58:50.255Z,1007.25
2017-08-18T07:59:45.254Z,1007.32
2017-08-18T08:00:40.352Z,1007.31
2017-08-18T08:01:34.348Z,1007.32
2017-08-18T08:02:23.444Z,1007.37
2017-08-18T08:03:17.537Z,1007.30
2017-08-18T08:04:12.487Z,1007.34
2017-08-18T08:05:07.607Z,1007.32
2017-08-18T08:05:56.626Z,1007.23
2017-08-18T08:06:51.755Z,1007.20
2017-08-18T08:07:40.882Z,1007.15
2017-08-18T08:08:28.734Z,1007.12
2017-08-18T08:09:16.783Z,1007.10
2017-08-18T08:10:04.818Z,1007.06
2017-08-18T08:10:59.859Z,1007.02
2017-08-18T08:11:54.007Z,1007.05
2017-08-18T08:12:48.017Z,1007.02
2017-08-18T08:13:36.999Z,1006.98
2017-08-18T08:14:25.097Z,1006.98
2017-08-18T08:15:19.153Z,1007.00
2017-08-18T08:16:07.196Z,1007.02
2017-08-18T08:17:01.510Z,1006.98
2017-08-18T08:17:55.576Z,1006.98
2017-08-18T08:18:43.327Z,1007.00
2017-08-18T08:19:43.429Z,1007.03
2017-08-18T08:20:38.415Z,1007.02
2017-08-18T08:21:33.449Z,1007.03
2017-08-18T08:22:27.480Z,1007.01
2017-08-18T08:23:27.864Z,1006.97
2017-08-18T08:24:22.616Z,1006.96
2017-08-18T08:25:17.656Z,1006.90
2017-08-18T08:26:17.765Z,1006.82
2017-08-18T08:27:06.768Z,1006.84
2017-08-18T08:27:55.731Z,1006.79
2017-08-18T08:28:51.128Z,1006.78
2017-08-18T08:29:40.042Z,1006.79
2017-08-18T08:30:28.937Z,1006.76
2017-08-18T08:31:18.005Z,1006.70
2017-08-18T08:32:11.968Z,1006.66
2017-08-18T08:33:00.090Z,1006.65
2017-08-18T08:33:49.266Z,1006.64
2017-08-18T08:34:38.179Z,1006.64
2017-08-18T08:35:27.289Z,1006.64
2017-08-18T08:36:16.301Z,1006.64
2017-08-18T08:37:04.284Z,1006.61
2017-08-18T08:37:59.352Z,1006.69
2017-08-18T08:38:53.402Z,1006.72
2017-08-18T08:39:48.475Z,1006.74
2017-08-18T08:40:37.482Z,1006.72
2017-08-18T08:41:38.588Z,1006.76
2017-08-18T08:42:33.584Z,1006.74
2017-08-18T08:43:33.612Z,1006.78
2017-08-18T08:44:33.681Z,1006.79
2017-08-18T08:45:27.787Z,1006.79
2017-08-18T08:46:22.779Z,1006.76
2017-08-18T08:47:17.744Z,1006.75
2017-08-18T08:48:11.925Z,1006.73
2017-08-18T08:49:05.926Z,1006.73
2017-08-18T08:50:01.012Z,1006.73
2017-08-18T08:50:55.998Z,1006.75
2017-08-18T08:51:45.148Z,1006.78
2017-08-18T08:52:39.165Z,1006.82
2017-08-18T08:53:39.149Z,1006.80
2017-08-18T08:54:27.208Z,1006.79
2017-08-18T08:55:15.258Z,1006.78
2017-08-18T08:56:15.283Z,1006.83
2017-08-18T08:57:10.228Z,1006.87
2017-08-18T08:57:58.337Z,1006.88
2017-08-18T08:58:59.478Z,1006.91
2017-08-18T08:59:48.505Z,1006.91
2017-08-18T09:00:42.494Z,1006.93
2017-08-18T09:01:30.567Z,1006.94
2017-08-18T09:02:25.563Z,1006.90
2017-08-18T09:03:25.706Z,1006.92
2017-08-18T09:04:19.708Z,1006.92
2017-08-18T09:05:19.826Z,1006.90
2017-08-18T09:06:08.778Z,1006.94
2017-08-18T09:07:03.849Z,1006.99
2017-08-18T09:08:03.922Z,1006.97
2017-08-18T09:08:53.015Z,1006.94
2017-08-18T09:09:47.052Z,1007.05
2017-08-18T09:10:41.106Z,1007.02
2017-08-18T09:11:35.224Z,1007.01
2017-08-18T09:12:30.270Z,1007.07
2017-08-18T09:13:18.228Z,1007.04
2017-08-18T09:14:12.359Z,1007.04
2017-08-18T09:15:01.331Z,1007.00
2017-08-18T09:15:50.496Z,1006.99
2017-08-18T09:16:50.615Z,1006.98
2017-08-18T09:17:50.422Z,1006.94
2017-08-18T09:18:38.509Z,1006.93
2017-08-18T09:19:32.615Z,1006.89
2017-08-18T09:20:20.720Z,1006.84
2017-08-18T09:21:15.721Z,1006.85
2017-08-18T09:22:10.771Z,1006.80
2017-08-18T09:23:10.874Z,1006.84
2017-08-18T09:24:04.834Z,1006.83
2017-08-18T09:24:58.985Z,1006.83
2017-08-18T09:25:52.921Z,1006.82
2017-08-18T09:26:42.037Z,1006.87
2017-08-18T09:27:36.167Z,1006.80
2017-08-18T09:28:31.157Z,1006.86
2017-08-18T09:29:20.092Z,1006.86
2017-08-18T09:30:14.242Z,1006.90
2017-08-18T09:31:08.312Z,1006.91
2017-08-18T09:32:03.544Z,1006.92
2017-08-18T09:32:57.801Z,1006.92
2017-08-18T09:33:51.451Z,1006.97
2017-08-18T09:34:39.530Z,1006.95
2017-08-18T09:35:28.614Z,1006.92
2017-08-18T09:36:17.589Z,1006.92
2017-08-18T09:37:06.609Z,1006.83
2017-08-18T09:37:55.625Z,1006.79
2017-08-18T09:38:49.747Z,1006.81
2017-08-18T09:39:43.829Z,1006.76
2017-08-18T09:40:37.797Z,1006.74
2017-08-18T09:41:31.978Z,1006.77
2017-08-18T09:42:25.949Z,1006.72
2017-08-18T09:43:31.896Z,1006.85
2017-08-18T09:44:21.158Z,1006.89
2017-08-18T09:45:10.194Z,1006.80
2017-08-18T09:46:05.163Z,1006.76
2017-08-18T09:47:05.290Z,1006.74
2017-08-18T09:47:59.292Z,1006.72
2017-08-18T09:48:59.282Z,1006.51
2017-08-18T09:49:53.426Z,1006.47
2017-08-18T09:50:41.478Z,1006.61
2017-08-18T09:51:35.482Z,1006.56
2017-08-18T09:52:24.536Z,1006.53
2017-08-18T09:53:18.600Z,1006.52
2017-08-18T09:54:07.778Z,1006.59
2017-08-18T09:55:01.689Z,1006.54
2017-08-18T09:55:56.823Z,1006.56
2017-08-18T09:56:50.801Z,1006.53
2017-08-18T09:57:45.914Z,1006.55
2017-08-18T09:58:45.868Z,1006.57
2017-08-18T09:59:40.071Z,1006.57
2017-08-18T10:00:28.045Z,1006.52
2017-08-18T10:01:16.190Z,1006.46
2017-08-18T10:02:05.250Z,1006.35
2017-08-18T10:03:06.223Z,1006.31
2017-08-18T10:03:55.319Z,1006.35
2017-08-18T10:04:49.340Z,1006.34
2017-08-18T10:05:43.410Z,1006.33
2017-08-18T10:06:32.817Z,1006.39
2017-08-18T10:07:21.617Z,1006.41
2017-08-18T10:08:10.634Z,1006.37
2017-08-18T10:08:59.609Z,1006.38
2017-08-18T10:09:48.644Z,1006.41
2017-08-18T10:10:37.743Z,1006.44
2017-08-18T10:11:43.976Z,1006.42
2017-08-18T10:12:38.797Z,1006.41
2017-08-18T10:13:32.892Z,1006.33
2017-08-18T10:14:26.897Z,1006.25
2017-08-18T10:15:15.906Z,1006.22
2017-08-18T10:16:10.079Z,1006.15
2017-08-18T10:17:11.059Z,1006.16
2017-08-18T10:18:11.132Z,1006.24
2017-08-18T10:19:06.201Z,1006.34
2017-08-18T10:20:01.256Z,1006.33
2017-08-18T10:21:01.283Z,1006.35
2017-08-18T10:21:49.279Z,1006.31
2017-08-18T10:22:49.459Z,1006.29
2017-08-18T10:23:43.403Z,1006.27
2017-08-18T10:24:43.461Z,1006.25
2017-08-18T10:25:38.471Z,1006.27
2017-08-18T10:26:38.543Z,1006.25
2017-08-18T10:27:38.688Z,1006.25
2017-08-18T10:28:32.706Z,1006.30
2017-08-18T10:29:20.767Z,1006.28
2017-08-18T10:30:14.732Z,1006.24
2017-08-18T10:31:02.784Z,1006.23
2017-08-18T10:31:56.979Z,1006.23
2017-08-18T10:32:51.897Z,1006.22
2017-08-18T10:33:52.985Z,1006.19
2017-08-18T10:34:52.994Z,1006.23
2017-08-18T10:35:47.980Z,1006.22
2017-08-18T10:36:42.147Z,1006.20
2017-08-18T10:37:42.117Z,1006.17
2017-08-18T10:38:37.226Z,1006.20
2017-08-18T10:39:32.336Z,1006.18
2017-08-18T10:40:26.289Z,1006.25
2017-08-18T10:41:26.328Z,1006.30
2017-08-18T10:42:26.413Z,1006.33
2017-08-18T10:43:21.493Z,1006.33
2017-08-18T10:44:10.507Z,1006.32
2017-08-18T10:44:59.856Z,1006.31
2017-08-18T10:45:54.662Z,1006.36
2017-08-18T10:46:48.565Z,1006.40
2017-08-18T10:47:48.646Z,1006.39
2017-08-18T10:48:42.718Z,1006.40
2017-08-18T10:49:30.832Z,1006.39
2017-08-18T10:50:25.130Z,1006.34
2017-08-18T10:51:13.879Z,1006.33
2017-08-18T10:52:07.940Z,1006.32
2017-08-18T10:52:56.958Z,1006.30
2017-08-18T10:53:51.056Z,1006.27
2017-08-18T10:54:45.013Z,1006.26
2017-08-18T10:55:34.509Z,1006.33